Tulloch Bridge, United Kingdom
Current Conditions -  °F | °C
As of 11:50 AM on Saturday 20 Dec 2014 (Local Time) from EGEO Reporting Station
Rain Showers Rain Showers  
Wind Chill: 39°   Ceiling: Unl
Heat Index: 46°   Visibility: 6mi
Dew Point: 39°   Wind: 21mph
Humidity: 76%   Direction: 280°W
Pressure: 30.09"   Gusts: NA
Location:  56.87°N, 4.7°W
Report Text: EGEO 201150Z 28018KT 9999 VCSH FEW015 SCT024 08/04 Q1019
Loading
Personal Weather Stations






























Interactive Weather Map New forecast layout! Learn more

10-Day Weather Forecast

Advertisements
Track Severe Weather on mobile